Terminal Aerodrome Forecast
Issued by NWS

Home | Current Version | Previous Version | Text Only | Print | Product List | Glossary On
Versions: 1 2 3 4 5 6 7 8 9 10 11 12 13 14 15 16 17 18 19 20 21
000
FTUS43 KLSX 171100
TAFUIN
TAF
KUIN 171136Z 1712/1812 02005KT 1/2SM FG OVC002
     FM171500 02005KT 2SM BR OVC007
     FM171700 03006KT P6SM OVC010
     FM172100 03006KT P6SM OVC020
     FM180200 36006KT P6SM SCT035
     FM180500 04003KT 2SM BR SCT020=

USA.gov is the U.S. government's official web portal to all federal, state and local government web resources and services.